Time;durP1;ratioP1;P1;durP2;ratioP2;P2;SDS_P1;SDS_P2;PMS_P1;PMS_P2;Temp;Humidity;BMP_temperature;BMP_pressure;BME280_temperature;BME280_humidity;BME280_pressure;Samples;Min_cycle;Max_cycle;Signal;HPM_P1;HPM_P2
2023/03/24 00:02:22;;;;;;;19.55;7.13;;;11.20;99.90;;;;;;6245887;22;20015;-79
2023/03/24 00:04:52;;;;;;;13.98;7.47;;;11.20;99.90;;;;;;6246748;22;20019;-79
2023/03/24 00:07:18;;;;;;;15.65;7.25;;;11.20;99.90;;;;;;6220739;22;20054;-79
2023/03/24 00:09:44;;;;;;;15.77;6.88;;;11.40;99.90;;;;;;6220777;22;20008;-79
2023/03/24 00:12:17;;;;;;;13.20;7.50;;;11.20;99.90;;;;;;6246016;22;20161;-79
2023/03/24 00:14:45;;;;;;;16.20;7.33;;;11.20;99.90;;;;;;6272709;22;20015;-79
2023/03/24 00:17:16;;;;;;;14.00;7.22;;;11.20;99.90;;;;;;6273272;22;20011;-79
2023/03/24 00:19:44;;;;;;;17.05;7.30;;;11.10;99.90;;;;;;6246705;22;20019;-79
2023/03/24 00:22:14;;;;;;;11.85;6.85;;;11.20;99.90;;;;;;6248225;22;20008;-79
2023/03/24 00:24:40;;;;;;;13.73;7.45;;;11.10;99.90;;;;;;6274899;22;20022;-79
2023/03/24 00:27:06;;;;;;;14.55;7.82;;;11.10;99.90;;;;;;6247815;22;20036;-80
2023/03/24 00:29:35;;;;;;;15.00;7.97;;;11.10;99.90;;;;;;6247162;22;20403;-79
2023/03/24 00:32:01;;;;;;;15.88;7.22;;;11.10;99.90;;;;;;6247820;22;20019;-79
2023/03/24 00:34:27;;;;;;;14.60;7.50;;;11.20;99.90;;;;;;6247864;22;20314;-79
2023/03/24 00:36:52;;;;;;;18.33;8.48;;;11.10;99.90;;;;;;6247665;22;20004;-79
2023/03/24 00:39:19;;;;;;;17.75;7.45;;;11.20;99.90;;;;;;6275124;22;20016;-79
2023/03/24 00:41:46;;;;;;;15.63;8.07;;;11.20;99.90;;;;;;6247811;22;20011;-79
2023/03/24 00:44:18;;;;;;;15.63;7.30;;;11.10;99.90;;;;;;6274732;22;20043;-79
2023/03/24 00:46:54;;;;;;;12.73;7.78;;;11.10;99.90;;;;;;6248246;22;20011;-79
2023/03/24 00:49:40;;;;;;;15.02;6.97;;;11.10;99.90;;;;;;6247606;22;20022;-79
2023/03/24 00:52:10;;;;;;;17.23;8.93;;;11.10;99.90;;;;;;6275143;22;20008;-79
2023/03/24 00:54:38;;;;;;;12.95;7.13;;;11.10;99.90;;;;;;6274615;22;20315;-79
2023/03/24 00:57:05;;;;;;;14.38;7.43;;;11.10;99.90;;;;;;6274407;22;20004;-79
2023/03/24 00:59:31;;;;;;;16.17;7.93;;;11.10;99.90;;;;;;6274999;22;20012;-79
2023/03/24 01:01:56;;;;;;;13.63;7.63;;;11.10;99.90;;;;;;6248388;22;20011;-79
2023/03/24 01:04:25;;;;;;;16.55;7.75;;;11.10;99.90;;;;;;6221805;22;20019;-79
2023/03/24 01:06:53;;;;;;;15.93;7.55;;;11.10;99.90;;;;;;6274889;22;20016;-79
2023/03/24 01:09:20;;;;;;;16.10;6.68;;;11.10;99.90;;;;;;6247340;22;20434;-79
2023/03/24 01:11:46;;;;;;;13.75;7.30;;;11.20;99.90;;;;;;6274412;22;20390;-79
2023/03/24 01:14:13;;;;;;;14.57;7.43;;;11.10;99.90;;;;;;6247358;22;20026;-79
2023/03/24 01:16:40;;;;;;;12.70;7.07;;;11.10;99.90;;;;;;6247674;22;20422;-79
2023/03/24 01:19:08;;;;;;;16.85;8.23;;;11.20;99.90;;;;;;6247428;22;20004;-79
2023/03/24 01:21:35;;;;;;;14.40;7.35;;;11.10;99.90;;;;;;6247357;22;20016;-79
2023/03/24 01:24:02;;;;;;;15.43;7.75;;;11.10;99.90;;;;;;6222244;22;20128;-80
2023/03/24 01:26:28;;;;;;;14.60;6.60;;;11.10;99.90;;;;;;6246855;22;20100;-79
2023/03/24 01:28:53;;;;;;;24.00;7.32;;;11.10;99.90;;;;;;6247490;22;20007;-79
2023/03/24 01:31:19;;;;;;;10.02;6.63;;;11.30;99.90;;;;;;6221935;22;20022;-79
2023/03/24 01:33:45;;;;;;;14.10;7.03;;;11.20;99.90;;;;;;6274732;22;20267;-79
2023/03/24 01:36:10;;;;;;;12.38;7.30;;;11.10;99.90;;;;;;6274787;22;20016;-79
2023/03/24 01:38:37;;;;;;;12.15;7.22;;;11.30;99.90;;;;;;6274724;22;20004;-79
2023/03/24 01:41:05;;;;;;;13.43;7.32;;;11.10;99.90;;;;;;6246535;22;20047;-79
2023/03/24 01:43:33;;;;;;;18.42;8.27;;;11.10;99.90;;;;;;6247205;22;20064;-79
2023/03/24 01:46:19;;;;;;;15.75;8.70;;;11.10;99.90;;;;;;6274416;22;20022;-79
2023/03/24 01:48:53;;;;;;;16.10;6.97;;;11.10;99.90;;;;;;6247170;22;20470;-79
2023/03/24 01:51:29;;;;;;;12.55;6.72;;;11.10;99.90;;;;;;6247129;22;20315;-79
2023/03/24 01:54:15;;;;;;;12.32;6.88;;;11.10;99.90;;;;;;6274738;22;20053;-79
2023/03/24 01:56:47;;;;;;;10.30;6.35;;;11.10;99.90;;;;;;6221403;22;20023;-79
2023/03/24 01:59:22;;;;;;;16.20;7.10;;;11.10;99.90;;;;;;6274705;22;20042;-79
2023/03/24 02:01:48;;;;;;;14.10;6.80;;;11.10;99.90;;;;;;6247557;22;20379;-79
2023/03/24 02:04:14;;;;;;;10.85;6.15;;;11.10;99.90;;;;;;6222049;22;20090;-79
2023/03/24 02:06:43;;;;;;;11.35;6.78;;;11.10;99.90;;;;;;6247853;22;20008;-78
2023/03/24 02:09:10;;;;;;;9.43;6.15;;;11.10;99.90;;;;;;6250305;22;20012;-79
2023/03/24 02:11:37;;;;;;;12.02;6.47;;;11.10;99.90;;;;;;6226425;22;20061;-79
2023/03/24 02:14:05;;;;;;;10.02;5.95;;;11.10;99.90;;;;;;6250378;22;20014;-79
2023/03/24 02:16:57;;;;;;;16.73;7.05;;;11.10;99.90;;;;;;6247773;22;20015;-79
2023/03/24 02:19:37;;;;;;;14.88;7.07;;;11.20;99.90;;;;;;6221795;22;20039;-79
2023/03/24 02:22:46;;;;;;;9.60;6.65;;;11.20;99.90;;;;;;6247255;22;20039;-79
2023/03/24 02:25:38;;;;;;;12.43;7.10;;;11.20;99.90;;;;;;6274163;22;20021;-79
2023/03/24 02:28:21;;;;;;;11.65;6.10;;;11.20;99.90;;;;;;6247108;22;20015;-79
2023/03/24 02:31:05;;;;;;;13.32;7.28;;;11.20;99.90;;;;;;6247359;22;20260;-79
2023/03/24 02:33:40;;;;;;;12.48;6.47;;;11.20;99.90;;;;;;6247146;22;20055;-79
2023/03/24 02:36:27;;;;;;;10.70;6.80;;;11.20;99.90;;;;;;6274373;22;20079;-79
2023/03/24 02:39:20;;;;;;;10.00;7.00;;;11.20;99.90;;;;;;6273777;22;20014;-79
2023/03/24 02:42:01;;;;;;;12.07;7.60;;;11.20;99.90;;;;;;6225285;22;20007;-80
2023/03/24 02:44:38;;;;;;;13.68;8.15;;;11.30;99.90;;;;;;6274194;22;20058;-80
2023/03/24 02:47:23;;;;;;;12.15;7.50;;;11.30;99.90;;;;;;6246976;22;20004;-80
2023/03/24 02:50:13;;;;;;;10.27;6.90;;;11.30;99.90;;;;;;6246994;22;20051;-80
2023/03/24 02:52:45;;;;;;;9.60;6.78;;;11.30;99.90;;;;;;6246061;22;20065;-80
2023/03/24 02:55:20;;;;;;;10.18;7.45;;;11.30;99.90;;;;;;6247323;22;20058;-80
2023/03/24 02:57:55;;;;;;;11.43;7.88;;;11.30;99.90;;;;;;6221519;22;20027;-81
2023/03/24 03:00:40;;;;;;;13.50;6.55;;;11.30;99.90;;;;;;6221324;22;20061;-80
2023/03/24 03:03:27;;;;;;;12.13;8.00;;;11.30;99.90;;;;;;6246620;22;20080;-80
2023/03/24 03:05:58;;;;;;;11.00;7.15;;;11.30;99.90;;;;;;6274116;22;20003;-80
2023/03/24 03:08:27;;;;;;;11.55;7.47;;;11.30;99.90;;;;;;6246025;22;20014;-79
2023/03/24 03:10:56;;;;;;;12.77;8.13;;;11.30;99.90;;;;;;6274239;22;20011;-80
2023/03/24 03:13:33;;;;;;;14.73;7.75;;;11.40;99.90;;;;;;6221295;22;20050;-80
2023/03/24 03:16:06;;;;;;;10.57;7.22;;;11.30;99.90;;;;;;6274102;22;20012;-80
2023/03/24 03:18:40;;;;;;;12.40;7.55;;;11.30;99.90;;;;;;6246754;22;20014;-79
2023/03/24 03:21:12;;;;;;;12.18;8.30;;;11.40;99.90;;;;;;6221198;22;20012;-80
2023/03/24 03:23:56;;;;;;;10.13;7.25;;;11.40;99.90;;;;;;6245522;22;20016;-80
2023/03/24 03:26:27;;;;;;;11.38;6.72;;;11.30;99.90;;;;;;6246670;22;20023;-80
2023/03/24 03:28:58;;;;;;;11.98;7.78;;;11.40;99.90;;;;;;6246843;22;20133;-80
2023/03/24 03:31:43;;;;;;;10.32;6.55;;;11.40;99.90;;;;;;6247726;22;20019;-80
2023/03/24 03:34:36;;;;;;;11.60;7.20;;;11.40;99.90;;;;;;6274461;22;20690;-80
2023/03/24 03:37:27;;;;;;;15.65;6.97;;;11.40;99.90;;;;;;6273512;22;20426;-80
2023/03/24 03:39:58;;;;;;;10.32;6.95;;;11.40;99.90;;;;;;6274111;22;20445;-80
2023/03/24 03:42:24;;;;;;;9.05;6.70;;;11.50;99.90;;;;;;6246779;22;20438;-80
2023/03/24 03:44:50;;;;;;;19.02;8.32;;;11.50;99.90;;;;;;6274097;22;20011;-80
2023/03/24 03:47:17;;;;;;;6.55;2.95;;;11.50;99.90;;;;;;6246985;22;20012;-80
2023/03/24 03:49:44;;;;;;;6.43;3.00;;;11.50;99.90;;;;;;6246999;22;20106;-80
2023/03/24 03:52:11;;;;;;;6.93;3.78;;;11.20;99.90;;;;;;6273560;22;20084;-79
2023/03/24 03:54:38;;;;;;;8.45;4.03;;;11.10;99.90;;;;;;6248707;22;20008;-80
2023/03/24 03:57:03;;;;;;;7.03;3.70;;;11.10;99.90;;;;;;6276333;22;20262;-80
2023/03/24 03:59:32;;;;;;;6.85;4.40;;;11.10;99.90;;;;;;6248658;22;20442;-80
2023/03/24 04:02:18;;;;;;;10.18;4.47;;;11.00;99.90;;;;;;6249286;22;20370;-80
2023/03/24 04:04:55;;;;;;;7.95;4.13;;;11.00;99.90;;;;;;6276146;22;20039;-80
2023/03/24 04:07:29;;;;;;;11.00;4.65;;;11.00;99.90;;;;;;6248142;22;20015;-80
2023/03/24 04:10:23;;;;;;;9.45;4.28;;;10.90;99.90;;;;;;6248663;22;20016;-80
2023/03/24 04:12:56;;;;;;;;;;;10.90;99.90;;;;;;6276209;22;20456;-80
2023/03/24 04:15:39;;;;;;;7.97;3.75;;;10.90;99.90;;;;;;6276004;22;19915;-80
2023/03/24 04:18:20;;;;;;;;;;;10.80;99.90;;;;;;6249181;22;20022;-80
2023/03/24 04:20:56;;;;;;;8.80;3.72;;;10.80;99.90;;;;;;6247955;22;19923;-80
2023/03/24 04:24:26;;;;;;;15.60;3.63;;;10.70;99.90;;;;;;6275745;22;20050;-80
2023/03/24 04:26:54;;;;;;;12.85;3.63;;;10.70;99.90;;;;;;6127264;23;20013;-80
2023/03/24 04:29:35;;;;;;;10.90;3.13;;;10.60;99.90;;;;;;6127388;23;20020;-80
2023/03/24 04:32:24;;;;;;;8.13;2.70;;;10.60;99.90;;;;;;6152095;23;20017;-80
2023/03/24 04:35:00;;;;;;;10.93;3.38;;;10.50;99.90;;;;;;6121602;23;20056;-80
2023/03/24 04:37:31;;;;;;;11.30;2.65;;;10.50;99.90;;;;;;6127229;23;20014;-79
2023/03/24 04:39:59;;;;;;;12.57;2.95;;;10.50;99.90;;;;;;6151988;23;20013;-80
2023/03/24 04:42:33;;;;;;;13.55;3.22;;;10.40;99.90;;;;;;6152009;23;20441;-80
2023/03/24 04:44:59;;;;;;;10.80;2.92;;;10.30;99.90;;;;;;6152015;23;20020;-80
2023/03/24 04:47:31;;;;;;;14.55;3.35;;;10.20;99.90;;;;;;6127312;23;20063;-80
2023/03/24 04:50:08;;;;;;;9.85;2.60;;;10.20;99.90;;;;;;6126611;23;20028;-80
2023/03/24 04:52:33;;;;;;;10.60;3.17;;;10.10;99.90;;;;;;6151722;23;20018;-80
2023/03/24 04:55:11;;;;;;;15.35;3.55;;;10.30;99.90;;;;;;6126678;23;20032;-79
2023/03/24 04:57:37;;;;;;;11.10;3.70;;;10.10;99.90;;;;;;6210079;22;20389;-80
2023/03/24 05:00:06;;;;;;;14.23;3.50;;;10.10;99.90;;;;;;6248034;22;20012;-79
2023/03/24 05:02:32;;;;;;;12.98;3.67;;;10.00;99.90;;;;;;6248095;22;20026;-80
2023/03/24 05:04:58;;;;;;;14.15;3.20;;;10.00;99.90;;;;;;6222100;22;20012;-80
2023/03/24 05:07:24;;;;;;;15.77;3.63;;;10.00;99.90;;;;;;6222673;22;20091;-80
2023/03/24 05:09:51;;;;;;;13.32;3.50;;;9.90;99.90;;;;;;6222628;22;20016;-79
2023/03/24 05:12:16;;;;;;;11.27;3.25;;;9.90;99.90;;;;;;6247813;22;20014;-80
2023/03/24 05:14:42;;;;;;;14.05;3.25;;;9.90;99.90;;;;;;6222686;22;20405;-80
2023/03/24 05:17:11;;;;;;;15.52;3.55;;;9.90;99.90;;;;;;6223131;22;20015;-80
2023/03/24 05:19:45;;;;;;;12.88;3.35;;;9.80;99.90;;;;;;6221938;22;20430;-80
2023/03/24 05:22:11;;;;;;;19.42;3.75;;;9.80;99.90;;;;;;6248127;22;20077;-80
2023/03/24 05:24:39;;;;;;;14.43;3.63;;;9.80;99.90;;;;;;6247576;22;20011;-80
2023/03/24 05:27:04;;;;;;;13.50;4.18;;;9.80;99.90;;;;;;6274594;22;20023;-80
2023/03/24 05:29:30;;;;;;;17.95;4.43;;;9.70;99.90;;;;;;6247941;22;20012;-80
2023/03/24 05:31:55;;;;;;;18.13;4.13;;;9.70;99.90;;;;;;6222569;22;20091;-80
2023/03/24 05:34:21;;;;;;;18.20;4.28;;;9.80;99.90;;;;;;6221986;22;20020;-80
2023/03/24 05:36:47;;;;;;;13.80;3.90;;;9.70;99.90;;;;;;6248280;22;20043;-80
2023/03/24 05:39:16;;;;;;;17.40;4.20;;;9.80;99.90;;;;;;6274897;22;20308;-79
2023/03/24 05:41:41;;;;;;;19.13;4.43;;;9.80;99.90;;;;;;6247263;22;20409;-80
2023/03/24 05:44:07;;;;;;;15.90;5.20;;;9.80;99.90;;;;;;6247979;22;20011;-80
2023/03/24 05:46:32;;;;;;;17.92;4.95;;;9.70;99.90;;;;;;6247611;22;20043;-80
2023/03/24 05:48:58;;;;;;;22.88;4.88;;;9.80;99.90;;;;;;6247158;22;20553;-80
2023/03/24 05:51:24;;;;;;;15.00;4.70;;;9.90;99.90;;;;;;6248051;22;20010;-79
2023/03/24 05:53:51;;;;;;;17.27;4.63;;;9.70;99.90;;;;;;6274597;22;20004;-80
2023/03/24 05:56:16;;;;;;;15.30;4.22;;;10.20;99.90;;;;;;6274833;22;20003;-80
2023/03/24 05:58:45;;;;;;;14.57;4.15;;;9.80;99.90;;;;;;6275058;22;20011;-79
2023/03/24 06:01:11;;;;;;;18.45;3.80;;;9.80;99.90;;;;;;6246988;22;20086;-79
2023/03/24 06:03:37;;;;;;;15.90;4.45;;;9.80;99.90;;;;;;6278848;22;20108;-79
2023/03/24 06:06:07;;;;;;;16.38;4.28;;;9.80;99.90;;;;;;6280210;22;20050;-80
2023/03/24 06:08:34;;;;;;;15.40;4.15;;;9.70;99.90;;;;;;6251598;22;20007;-79
2023/03/24 06:11:03;;;;;;;19.85;4.55;;;9.70;99.90;;;;;;6250196;22;20103;-80
2023/03/24 06:13:32;;;;;;;16.20;3.92;;;9.70;99.90;;;;;;6248766;22;20015;-80
2023/03/24 06:15:58;;;;;;;19.48;4.70;;;9.80;99.90;;;;;;6274281;22;20016;-79
2023/03/24 06:18:29;;;;;;;20.52;5.07;;;9.70;99.90;;;;;;6249115;22;20115;-79
2023/03/24 06:20:55;;;;;;;21.98;4.95;;;9.70;99.90;;;;;;6247739;22;20083;-80
2023/03/24 06:23:26;;;;;;;21.38;5.13;;;9.70;99.90;;;;;;6274845;22;20369;-80
2023/03/24 06:25:53;;;;;;;19.23;4.30;;;10.00;99.90;;;;;;6274977;22;20030;-80
2023/03/24 06:28:20;;;;;;;15.45;4.07;;;9.70;99.90;;;;;;6221783;22;20061;-80
2023/03/24 06:30:46;;;;;;;18.52;4.40;;;9.80;99.90;;;;;;6245883;22;20100;-80
2023/03/24 06:33:16;;;;;;;14.43;3.88;;;9.80;99.90;;;;;;6245852;22;20082;-79
2023/03/24 06:35:41;;;;;;;16.05;4.03;;;9.80;99.90;;;;;;6245816;22;20023;-80
2023/03/24 06:38:07;;;;;;;16.02;4.00;;;9.80;99.90;;;;;;6245982;22;20008;-80
2023/03/24 06:40:33;;;;;;;16.55;4.18;;;9.90;99.90;;;;;;6246566;22;20012;-79
2023/03/24 06:43:02;;;;;;;20.65;4.35;;;9.90;99.90;;;;;;6274668;22;20010;-79
2023/03/24 06:45:27;;;;;;;14.50;4.18;;;9.90;99.90;;;;;;6246650;22;20022;-80
2023/03/24 06:47:56;;;;;;;14.77;3.92;;;10.00;99.90;;;;;;6222044;22;20087;-80
2023/03/24 06:50:25;;;;;;;15.60;4.03;;;10.10;99.90;;;;;;6274529;22;20319;-80
2023/03/24 06:52:52;;;;;;;17.80;3.90;;;10.00;99.90;;;;;;6274145;22;20030;-80
2023/03/24 06:55:18;;;;;;;16.65;4.47;;;10.00;99.90;;;;;;6247150;22;20410;-80
2023/03/24 06:57:44;;;;;;;18.48;3.97;;;10.30;99.90;;;;;;6246999;22;20057;-80
2023/03/24 07:00:10;;;;;;;16.00;3.85;;;10.20;99.90;;;;;;6221071;22;20015;-80
2023/03/24 07:02:39;;;;;;;13.27;4.18;;;10.20;99.90;;;;;;6247058;22;20070;-79
2023/03/24 07:05:07;;;;;;;19.77;4.65;;;10.30;99.90;;;;;;6247004;22;20027;-79
2023/03/24 07:07:32;;;;;;;20.67;3.92;;;10.40;99.90;;;;;;6221396;22;20094;-79
2023/03/24 07:09:59;;;;;;;14.85;3.53;;;10.40;99.90;;;;;;6246955;22;20132;-78
2023/03/24 07:12:24;;;;;;;18.52;4.43;;;10.40;99.90;;;;;;6247156;22;20012;-79
2023/03/24 07:14:50;;;;;;;13.23;3.47;;;10.30;99.90;;;;;;6273962;22;20343;-79
2023/03/24 07:17:17;;;;;;;17.77;4.43;;;10.40;99.90;;;;;;6274144;22;20022;-79
2023/03/24 07:19:44;;;;;;;18.92;4.65;;;10.30;99.90;;;;;;6274297;22;20114;-79
2023/03/24 07:22:10;;;;;;;17.05;4.07;;;10.30;99.90;;;;;;6247012;22;20019;-79
2023/03/24 07:24:39;;;;;;;14.80;3.47;;;10.30;99.90;;;;;;6246824;22;20027;-79
2023/03/24 07:27:05;;;;;;;14.43;4.05;;;10.30;99.90;;;;;;6221304;22;20034;-79
2023/03/24 07:29:31;;;;;;;19.58;3.88;;;10.40;99.90;;;;;;6248212;22;20016;-79
2023/03/24 07:31:59;;;;;;;17.40;4.60;;;10.40;99.90;;;;;;6276191;22;20030;-79
2023/03/24 07:34:26;;;;;;;18.77;4.53;;;10.40;99.90;;;;;;6276310;22;20007;-79
2023/03/24 07:36:52;;;;;;;19.33;4.43;;;10.50;99.90;;;;;;6276201;22;20074;-79
2023/03/24 07:39:19;;;;;;;20.95;5.00;;;10.50;99.90;;;;;;6248747;22;20356;-80
2023/03/24 07:41:45;;;;;;;20.08;5.13;;;10.50;99.90;;;;;;6248905;22;20372;-79
2023/03/24 07:44:12;;;;;;;16.02;4.40;;;10.60;99.90;;;;;;6247900;22;20086;-80
2023/03/24 07:46:40;;;;;;;20.58;4.38;;;10.60;99.90;;;;;;6223992;22;20011;-79
2023/03/24 07:49:06;;;;;;;21.48;4.50;;;10.70;99.90;;;;;;6248901;22;20322;-79
2023/03/24 07:51:32;;;;;;;25.15;5.10;;;10.70;99.90;;;;;;6248480;22;20122;-80
2023/03/24 07:54:01;;;;;;;19.10;4.47;;;10.70;99.90;;;;;;6276244;22;20010;-81
2023/03/24 07:56:27;;;;;;;24.52;4.82;;;10.80;99.90;;;;;;6223442;22;20406;-80
2023/03/24 07:58:52;;;;;;;19.10;4.25;;;10.90;99.90;;;;;;6275311;22;20011;-80
2023/03/24 08:01:18;;;;;;;21.92;4.63;;;10.90;99.90;;;;;;6248792;22;20051;-80
2023/03/24 08:03:44;;;;;;;19.77;5.40;;;10.90;99.90;;;;;;6248443;22;20114;-80
2023/03/24 08:06:10;;;;;;;21.52;5.45;;;11.00;99.90;;;;;;6223034;22;20034;-80
2023/03/24 08:08:36;;;;;;;23.05;4.32;;;10.90;99.90;;;;;;6248852;22;20365;-80
2023/03/24 08:11:05;;;;;;;26.08;5.82;;;10.90;99.90;;;;;;6248994;22;20417;-80
2023/03/24 08:13:31;;;;;;;21.67;4.93;;;10.90;99.90;;;;;;6275110;22;20015;-80
2023/03/24 08:15:56;;;;;;;24.83;5.43;;;10.80;99.90;;;;;;6221460;22;20015;-80
2023/03/24 08:18:24;;;;;;;26.67;5.43;;;10.80;99.90;;;;;;6274112;22;20283;-81
2023/03/24 08:20:55;;;;;;;21.88;5.07;;;10.90;99.90;;;;;;6221198;22;20484;-80
2023/03/24 08:23:24;;;;;;;28.60;6.03;;;11.00;99.90;;;;;;6221509;22;20008;-80
2023/03/24 08:25:50;;;;;;;23.17;5.43;;;11.10;99.90;;;;;;6274116;22;20086;-80
2023/03/24 08:28:16;;;;;;;21.65;5.00;;;11.00;99.90;;;;;;6220785;22;20042;-80
2023/03/24 08:30:45;;;;;;;34.53;5.93;;;11.20;99.90;;;;;;6275764;22;20107;-80
2023/03/24 08:33:13;;;;;;;21.65;4.75;;;11.00;99.90;;;;;;6248657;22;20035;-80
2023/03/24 08:35:39;;;;;;;23.52;5.18;;;11.00;99.90;;;;;;6248690;22;20366;-80
2023/03/24 08:38:10;;;;;;;25.25;4.93;;;10.90;99.90;;;;;;6248414;22;20300;-79
2023/03/24 08:40:38;;;;;;;29.00;5.00;;;10.80;99.90;;;;;;6246561;22;20045;-79
2023/03/24 08:43:07;;;;;;;23.63;5.78;;;10.80;99.90;;;;;;6247947;22;20003;-80
2023/03/24 08:45:33;;;;;;;19.95;4.90;;;10.70;99.90;;;;;;6222596;22;20008;-77
2023/03/24 08:48:02;;;;;;;26.40;5.78;;;10.80;99.90;;;;;;6248052;22;20010;-78
2023/03/24 08:50:31;;;;;;;23.98;5.10;;;10.80;99.90;;;;;;6275338;22;20370;-81
2023/03/24 08:52:57;;;;;;;24.10;5.10;;;10.80;99.90;;;;;;6248002;22;20094;-80
2023/03/24 08:55:24;;;;;;;21.58;5.28;;;10.80;99.90;;;;;;6247120;22;20454;-80
2023/03/24 08:57:50;;;;;;;23.83;5.82;;;10.70;99.90;;;;;;6274854;22;20012;-81
2023/03/24 09:00:17;;;;;;;26.48;5.38;;;10.80;99.90;;;;;;6248344;22;20008;-80
2023/03/24 09:02:52;;;;;;;24.20;5.40;;;10.90;99.90;;;;;;6247545;22;20022;-80
2023/03/24 09:05:20;;;;;;;32.17;6.07;;;11.00;99.90;;;;;;6222835;22;20062;-80
2023/03/24 09:07:46;;;;;;;22.25;4.97;;;11.30;99.90;;;;;;6222277;22;20012;-82
2023/03/24 09:10:13;;;;;;;19.05;4.85;;;11.20;99.90;;;;;;6274528;22;20091;-82
2023/03/24 09:12:39;;;;;;;19.13;5.20;;;11.40;99.90;;;;;;6247855;22;20133;-82
2023/03/24 09:15:07;;;;;;;22.27;5.60;;;11.30;99.90;;;;;;6248037;22;20046;-82
2023/03/24 09:17:34;;;;;;;20.08;4.90;;;11.30;99.90;;;;;;6222596;22;20008;-81
2023/03/24 09:19:59;;;;;;;23.05;4.93;;;11.30;99.90;;;;;;6247404;22;20086;-83
2023/03/24 09:22:25;;;;;;;22.45;5.25;;;11.40;99.90;;;;;;6246814;22;20473;-82
2023/03/24 09:24:50;;;;;;;21.17;4.60;;;11.40;99.90;;;;;;6246434;22;20102;-82
2023/03/24 09:27:16;;;;;;;18.23;4.80;;;11.50;99.90;;;;;;6246718;22;20012;-82
2023/03/24 09:29:43;;;;;;;17.00;4.75;;;11.70;99.90;;;;;;6274103;22;20016;-82
2023/03/24 09:32:09;;;;;;;19.75;4.18;;;11.90;99.90;;;;;;6246713;22;20335;-82
2023/03/24 09:34:37;;;;;;;21.85;4.68;;;12.10;99.90;;;;;;6247138;22;20023;-82
2023/03/24 09:37:04;;;;;;;24.52;5.20;;;12.30;99.90;;;;;;6222429;22;20043;-82
2023/03/24 09:39:29;;;;;;;19.00;4.72;;;12.50;99.90;;;;;;6221563;22;20426;-82
2023/03/24 09:41:56;;;;;;;18.38;4.57;;;12.70;99.90;;;;;;6222218;22;20034;-82
2023/03/24 09:44:21;;;;;;;22.17;4.70;;;12.90;99.90;;;;;;6247325;22;20529;-81
2023/03/24 09:46:58;;;;;;;24.23;5.32;;;13.10;99.90;;;;;;6247913;22;20042;-81
2023/03/24 09:49:30;;;;;;;22.48;4.72;;;13.00;99.90;;;;;;6222774;22;20409;-80
2023/03/24 09:52:06;;;;;;;20.42;5.10;;;12.90;99.90;;;;;;6247688;22;20342;-81
2023/03/24 09:54:53;;;;;;;19.65;4.50;;;13.10;99.90;;;;;;6250525;22;20046;-81
2023/03/24 09:57:32;;;;;;;20.38;4.97;;;13.00;99.90;;;;;;6227496;22;20043;-81
2023/03/24 09:59:58;;;;;;;25.77;5.93;;;13.00;99.90;;;;;;6252697;22;20299;-81
2023/03/24 10:02:29;;;;;;;22.77;5.35;;;12.80;99.90;;;;;;6247963;22;20077;-81
2023/03/24 10:04:55;;;;;;;18.77;5.38;;;12.50;99.90;;;;;;6221798;22;20065;-81
2023/03/24 10:07:28;;;;;;;23.83;5.43;;;12.30;99.90;;;;;;6247552;22;20011;-81
2023/03/24 10:09:58;;;;;;;22.20;4.70;;;12.20;99.90;;;;;;6221309;22;20015;-81
2023/03/24 10:12:38;;;;;;;23.17;4.70;;;12.00;99.90;;;;;;6247277;22;20369;-82
2023/03/24 10:15:19;;;;;;;22.08;4.90;;;11.90;99.90;;;;;;6274304;22;20054;-81
2023/03/24 10:17:55;;;;;;;19.73;5.32;;;11.70;99.90;;;;;;6274764;22;20107;-81
2023/03/24 10:20:24;;;;;;;18.30;4.50;;;11.70;99.90;;;;;;6247227;22;20560;-81
2023/03/24 10:23:01;;;;;;;22.15;4.60;;;11.70;99.90;;;;;;6246963;22;20007;-81
2023/03/24 10:25:51;;;;;;;22.25;5.03;;;11.80;99.90;;;;;;6274447;22;20012;-81
2023/03/24 10:28:27;;;;;;;23.27;4.70;;;11.80;99.90;;;;;;6246913;22;20008;-81
2023/03/24 10:30:56;;;;;;;19.65;4.43;;;12.00;99.90;;;;;;6247361;22;20016;-81
2023/03/24 10:33:21;;;;;;;26.63;5.15;;;12.10;99.90;;;;;;6246902;22;20330;-81
2023/03/24 10:36:10;;;;;;;20.05;4.95;;;12.10;99.90;;;;;;6221486;22;20323;-81
2023/03/24 10:38:35;;;;;;;22.92;5.53;;;12.20;99.90;;;;;;6273814;22;20014;-81
2023/03/24 10:41:04;;;;;;;23.75;5.13;;;12.30;99.90;;;;;;6246473;22;20015;-81
2023/03/24 10:43:31;;;;;;;21.33;5.07;;;12.10;99.90;;;;;;6247151;22;20018;-81
2023/03/24 10:46:01;;;;;;;24.38;5.13;;;12.20;99.90;;;;;;6274093;22;20007;-80
2023/03/24 10:48:41;;;;;;;20.25;4.93;;;12.20;99.90;;;;;;6221490;22;20030;-81
2023/03/24 10:51:16;;;;;;;21.30;5.07;;;12.30;99.90;;;;;;6273685;22;20019;-81
2023/03/24 10:53:47;;;;;;;21.15;5.10;;;12.50;99.90;;;;;;6221237;22;20016;-81
2023/03/24 10:56:56;;;;;;;27.88;6.63;;;12.70;99.90;;;;;;6274040;22;20070;-81
2023/03/24 11:00:08;;;;;;;21.42;5.15;;;12.90;99.90;;;;;;6245231;22;20051;-81
2023/03/24 11:02:36;;;;;;;15.55;4.68;;;13.10;99.90;;;;;;6233612;22;20182;-81
2023/03/24 11:05:22;;;;;;;15.60;4.38;;;13.20;99.90;;;;;;6221401;22;20018;-81
2023/03/24 11:07:49;;;;;;;22.88;4.75;;;13.30;99.90;;;;;;6246325;22;20019;-81
2023/03/24 11:10:24;;;;;;;21.98;4.53;;;13.30;99.90;;;;;;6246590;22;20308;-81
2023/03/24 11:12:52;;;;;;;17.40;3.60;;;13.40;99.90;;;;;;6274087;22;20095;-81
2023/03/24 11:15:30;;;;;;;20.17;4.45;;;13.50;99.90;;;;;;6273504;22;20501;-80
2023/03/24 11:18:00;;;;;;;23.90;4.70;;;13.70;99.90;;;;;;6246498;22;20012;-80
2023/03/24 11:20:32;;;;;;;18.10;3.88;;;13.90;99.90;;;;;;6245833;22;20023;-81
2023/03/24 11:23:18;;;;;;;18.45;4.15;;;14.00;99.90;;;;;;6221231;22;20090;-80
2023/03/24 11:25:51;;;;;;;17.60;3.90;;;14.10;99.90;;;;;;6221200;22;20083;-80
2023/03/24 11:28:24;;;;;;;21.23;4.55;;;13.90;99.90;;;;;;6246492;22;20050;-80
2023/03/24 11:30:52;;;;;;;20.85;4.40;;;13.70;99.90;;;;;;6221370;22;20018;-80
2023/03/24 11:33:24;;;;;;;16.08;4.47;;;13.60;99.90;;;;;;6274057;22;20015;-80
2023/03/24 11:35:50;;;;;;;18.10;4.75;;;13.50;99.90;;;;;;6221137;22;20043;-81
2023/03/24 11:38:18;;;;;;;20.60;4.00;;;13.70;99.90;;;;;;6221511;22;20091;-80
2023/03/24 11:41:04;;;;;;;20.20;4.18;;;13.90;99.90;;;;;;6274068;22;20011;-80
2023/03/24 11:43:31;;;;;;;15.23;3.53;;;14.00;99.90;;;;;;6246892;22;20014;-80
2023/03/24 11:46:07;;;;;;;15.73;3.83;;;14.10;99.90;;;;;;6246645;22;20004;-80
2023/03/24 11:48:39;;;;;;;13.80;4.13;;;14.20;99.90;;;;;;6273950;22;20472;-80
2023/03/24 11:51:08;;;;;;;19.27;4.13;;;14.30;99.90;;;;;;6246238;22;20011;-80
2023/03/24 11:54:01;;;;;;;15.10;3.35;;;14.30;99.90;;;;;;6220925;22;20357;-81
2023/03/24 11:56:56;;;;;;;14.00;3.35;;;14.20;99.90;;;;;;6269112;22;20015;-80
2023/03/24 11:59:49;;;;;;;16.73;4.95;;;14.20;99.90;;;;;;6242672;22;20407;-81
2023/03/24 12:02:15;;;;;;;15.98;4.32;;;14.20;99.90;;;;;;6246240;22;20003;-81
2023/03/24 12:04:50;;;;;;;14.60;4.13;;;14.20;99.90;;;;;;6245527;22;20083;-81
2023/03/24 12:07:34;;;;;;;18.25;3.55;;;14.20;99.90;;;;;;6246037;22;20008;-81
2023/03/24 12:10:11;;;;;;;14.50;3.80;;;14.30;99.90;;;;;;6246156;22;20098;-81
2023/03/24 12:12:50;;;;;;;15.18;4.18;;;14.50;99.90;;;;;;6220927;22;20012;-81
2023/03/24 12:15:31;;;;;;;17.42;4.70;;;14.60;99.90;;;;;;6247574;22;20054;-80
2023/03/24 12:18:18;;;;;;;14.48;3.40;;;14.70;99.90;;;;;;6248087;22;20022;-80
2023/03/24 12:21:15;;;;;;;16.80;4.28;;;14.90;99.90;;;;;;6248503;22;20376;-81
2023/03/24 12:24:00;;;;;;;18.95;4.47;;;15.10;99.90;;;;;;6222925;22;20019;-81
2023/03/24 12:26:31;;;;;;;18.17;3.75;;;15.10;99.90;;;;;;6248116;22;20004;-80
2023/03/24 12:29:08;;;;;;;14.45;3.95;;;15.10;99.90;;;;;;6248167;22;20004;-81
2023/03/24 12:31:59;;;;;;;16.38;3.20;;;15.00;99.90;;;;;;6223245;22;20224;-80
2023/03/24 12:34:25;;;;;;;14.20;3.90;;;14.90;99.90;;;;;;6247708;22;20012;-80
2023/03/24 12:37:10;;;;;;;12.23;3.42;;;15.00;99.90;;;;;;6247998;22;20016;-81
2023/03/24 12:40:06;;;;;;;15.48;3.83;;;15.00;99.90;;;;;;6275660;22;20070;-81
2023/03/24 12:42:52;;;;;;;17.05;4.40;;;14.90;99.90;;;;;;6222983;22;20023;-80
2023/03/24 12:45:39;;;;;;;18.10;3.72;;;14.80;99.90;;;;;;6248619;22;20065;-81
2023/03/24 12:48:30;;;;;;;17.52;3.80;;;14.70;99.90;;;;;;6222376;22;20077;-80
2023/03/24 12:51:10;;;;;;;13.77;3.30;;;14.50;99.90;;;;;;6275348;22;20077;-80
2023/03/24 12:53:41;;;;;;;13.55;2.97;;;14.30;99.90;;;;;;6222867;22;20016;-81
2023/03/24 12:56:16;;;;;;;12.43;3.33;;;14.20;99.90;;;;;;6248026;22;20099;-80
2023/03/24 12:58:52;;;;;;;12.68;3.08;;;14.20;99.90;;;;;;6248446;22;20073;-80
2023/03/24 13:01:34;;;;;;;14.30;3.10;;;14.20;99.90;;;;;;6222511;22;20019;-80
2023/03/24 13:04:25;;;;;;;17.27;3.47;;;14.20;99.90;;;;;;6248091;22;20094;-80